Terminal Aerodrome Forecast
Issued by NWS Wichita, KS

Home | Current Version | Previous Version | Graphics & Text | Print | Product List | Glossary On
Versions: 1 2 3 4 5 6 7 8 9 10 11 12 13 14 15 16 17 18 19 20 21
613
FTUS43 KICT 161905 AAA
TAFICT
TAF AMD
KICT 161905Z 1619/1718 24011KT 6SM BR OVC009
      TEMPO 1619/1621 4SM -RA BR OVC005
     FM162100 27008KT 5SM BR OVC008
     FM170000 31011KT 4SM BR OVC006
     FM171400 32008KT P6SM SCT015=

USA.gov is the U.S. government's official web portal to all federal, state and local government web resources and services.